createdAt,value
2022-09-03T00:00:58.065Z,39.12
2022-09-03T00:01:58.216Z,39.06
2022-09-03T00:02:58.278Z,39.19
2022-09-03T00:03:58.290Z,39.15
2022-09-03T00:04:58.387Z,39.20
2022-09-03T00:05:58.449Z,39.17
2022-09-03T00:06:58.546Z,39.20
2022-09-03T00:07:58.588Z,39.29
2022-09-03T00:08:58.667Z,39.30
2022-09-03T00:09:58.821Z,39.29
2022-09-03T00:10:58.846Z,39.28
2022-09-03T00:11:58.916Z,39.27
2022-09-03T00:12:58.986Z,39.28
2022-09-03T00:13:59.138Z,39.31
2022-09-03T00:14:59.180Z,39.37
2022-09-03T00:15:59.288Z,39.37
2022-09-03T00:16:59.319Z,39.39
2022-09-03T00:17:59.409Z,39.41
2022-09-03T00:18:59.784Z,39.47
2022-09-03T00:19:59.572Z,39.62
2022-09-03T00:20:59.660Z,39.59
2022-09-03T00:21:59.739Z,39.59
2022-09-03T00:22:59.790Z,39.59
2022-09-03T00:23:59.871Z,39.57
2022-09-03T00:24:59.962Z,39.58
2022-09-03T00:26:00.036Z,39.61
2022-09-03T00:27:00.106Z,39.65
2022-09-03T00:28:00.173Z,39.72
2022-09-03T00:29:00.268Z,39.77
2022-09-03T00:30:00.363Z,39.87
2022-09-03T00:31:00.477Z,39.66
2022-09-03T00:32:00.496Z,39.62
2022-09-03T00:33:00.589Z,39.72
2022-09-03T00:34:00.657Z,39.54
2022-09-03T00:35:00.773Z,39.47
2022-09-03T00:36:00.824Z,39.47
2022-09-03T00:37:00.932Z,39.47
2022-09-03T00:38:00.987Z,39.41
2022-09-03T00:39:01.073Z,39.41
2022-09-03T00:40:01.208Z,39.43
2022-09-03T00:41:01.232Z,39.39
2022-09-03T00:42:01.314Z,39.40
2022-09-03T00:43:01.400Z,39.40
2022-09-03T00:44:01.482Z,39.40
2022-09-03T00:45:01.582Z,39.40
2022-09-03T00:46:01.710Z,39.40
2022-09-03T00:47:01.708Z,39.44
2022-09-03T00:48:01.791Z,39.46
2022-09-03T00:49:01.881Z,39.47
2022-09-03T00:50:02.014Z,39.50
2022-09-03T00:51:02.020Z,39.45
2022-09-03T00:52:02.104Z,39.43
2022-09-03T00:53:02.185Z,39.43
2022-09-03T00:54:02.263Z,39.46
2022-09-03T00:55:02.353Z,39.45
2022-09-03T00:56:02.419Z,39.48
2022-09-03T00:57:02.492Z,39.49
2022-09-03T00:58:02.567Z,39.48
2022-09-03T00:59:02.665Z,39.46
2022-09-03T01:00:02.750Z,39.51
2022-09-03T01:01:02.817Z,39.48
2022-09-03T01:02:03.055Z,39.45
2022-09-03T01:03:03.003Z,39.46
2022-09-03T01:04:03.110Z,39.44
2022-09-03T01:05:03.175Z,39.48
2022-09-03T01:06:03.238Z,39.44
2022-09-03T01:07:03.345Z,39.44
2022-09-03T01:08:03.398Z,39.49
2022-09-03T01:09:03.497Z,39.59
2022-09-03T01:10:03.578Z,39.70
2022-09-03T01:11:03.643Z,39.68
2022-09-03T01:12:03.728Z,39.67
2022-09-03T01:13:03.803Z,39.67
2022-09-03T01:14:03.899Z,39.73
2022-09-03T01:15:03.960Z,39.67
2022-09-03T01:16:04.093Z,39.80
2022-09-03T01:17:04.136Z,39.67
2022-09-03T01:18:04.225Z,39.78
2022-09-03T01:19:04.328Z,39.90
2022-09-03T01:20:04.366Z,39.75
2022-09-03T01:21:04.447Z,39.73
2022-09-03T01:22:04.525Z,39.70
2022-09-03T01:23:04.614Z,39.73
2022-09-03T01:24:04.699Z,39.76
2022-09-03T01:25:04.781Z,39.67
2022-09-03T01:26:04.868Z,39.60
2022-09-03T01:27:04.955Z,39.57
2022-09-03T01:28:05.038Z,39.63
2022-09-03T01:29:05.132Z,39.70
2022-09-03T01:30:05.181Z,39.69
2022-09-03T01:31:05.320Z,39.69
2022-09-03T01:32:05.343Z,39.69
2022-09-03T01:33:05.432Z,39.74
2022-09-03T01:34:05.542Z,39.83
2022-09-03T01:35:05.594Z,39.81
2022-09-03T01:36:05.679Z,39.77
2022-09-03T01:37:05.769Z,39.72
2022-09-03T01:38:05.854Z,39.83
2022-09-03T01:39:05.929Z,39.88
2022-09-03T01:40:05.976Z,40.01
2022-09-03T01:41:06.052Z,39.92
2022-09-03T01:42:06.146Z,39.81
2022-09-03T01:43:06.219Z,39.81
2022-09-03T01:44:06.306Z,39.87
2022-09-03T01:45:06.387Z,39.90
2022-09-03T01:46:06.491Z,39.92
2022-09-03T01:47:06.530Z,40.03
2022-09-03T01:48:06.645Z,40.08
2022-09-03T01:49:06.694Z,39.95
2022-09-03T01:50:06.787Z,39.88
2022-09-03T01:51:06.869Z,39.93
2022-09-03T01:52:06.942Z,39.97
2022-09-03T01:53:07.045Z,40.10
2022-09-03T01:54:07.198Z,40.13
2022-09-03T01:55:07.203Z,40.30
2022-09-03T01:56:07.287Z,40.21
2022-09-03T01:57:07.356Z,40.06
2022-09-03T01:58:07.428Z,40.00
2022-09-03T01:59:07.530Z,39.93
2022-09-03T02:00:07.589Z,39.89
2022-09-03T02:01:07.715Z,39.90
2022-09-03T02:02:07.731Z,39.90
2022-09-03T02:03:07.819Z,39.94
2022-09-03T02:04:07.914Z,39.96
2022-09-03T02:05:07.992Z,39.94
2022-09-03T02:06:08.085Z,39.99
2022-09-03T02:07:08.155Z,40.05
2022-09-03T02:08:08.246Z,40.07
2022-09-03T02:09:08.331Z,40.13
2022-09-03T02:10:08.402Z,40.16
2022-09-03T02:11:08.492Z,40.20
2022-09-03T02:12:08.568Z,40.21
2022-09-03T02:13:08.647Z,40.23
2022-09-03T02:14:08.738Z,40.23
2022-09-03T02:15:08.839Z,40.33
2022-09-03T02:16:09.012Z,40.26
2022-09-03T02:17:09.000Z,40.21
2022-09-03T02:18:09.093Z,40.27
2022-09-03T02:19:09.178Z,40.27
2022-09-03T02:20:09.259Z,40.27
2022-09-03T02:21:09.344Z,40.30
2022-09-03T02:22:09.414Z,40.33
2022-09-03T02:23:09.515Z,40.36
2022-09-03T02:24:09.589Z,40.40
2022-09-03T02:25:09.671Z,40.42
2022-09-03T02:26:09.736Z,40.46
2022-09-03T02:27:09.821Z,40.48
2022-09-03T02:28:17.226Z,40.47
2022-09-03T02:29:09.980Z,40.50
2022-09-03T02:30:10.048Z,40.55
2022-09-03T02:31:10.201Z,40.54
2022-09-03T02:32:10.203Z,40.60
2022-09-03T02:33:10.309Z,40.63
2022-09-03T02:34:10.358Z,40.62
2022-09-03T02:35:10.432Z,40.56
2022-09-03T02:36:10.538Z,40.61
2022-09-03T02:37:10.609Z,40.58
2022-09-03T02:38:10.670Z,40.67
2022-09-03T02:39:10.759Z,40.81
2022-09-03T02:40:10.851Z,40.74
2022-09-03T02:41:10.908Z,40.82
2022-09-03T02:42:10.984Z,40.82
2022-09-03T02:43:11.066Z,40.93
2022-09-03T02:44:11.107Z,40.90
2022-09-03T02:45:11.214Z,40.79
2022-09-03T02:46:11.319Z,40.75
2022-09-03T02:47:11.366Z,40.76
2022-09-03T02:48:11.492Z,40.79
2022-09-03T02:49:11.550Z,40.86
2022-09-03T02:50:11.622Z,40.92
2022-09-03T02:51:14.140Z,40.92
2022-09-03T02:52:11.787Z,40.87
2022-09-03T02:53:11.890Z,40.90
2022-09-03T02:54:11.957Z,40.95
2022-09-03T02:55:12.035Z,40.95
2022-09-03T02:56:12.122Z,40.95
2022-09-03T02:57:12.210Z,40.99
2022-09-03T02:58:12.348Z,40.96
2022-09-03T02:59:12.356Z,41.00
2022-09-03T03:00:12.442Z,41.06
2022-09-03T03:01:16.257Z,41.12
2022-09-03T03:02:12.636Z,41.10
2022-09-03T03:03:12.669Z,41.17
2022-09-03T03:04:12.730Z,41.20
2022-09-03T03:05:12.803Z,41.25
2022-09-03T03:06:12.889Z,41.26
2022-09-03T03:07:12.954Z,41.20
2022-09-03T03:08:13.049Z,41.06
2022-09-03T03:09:13.123Z,41.04
2022-09-03T03:10:13.201Z,41.04
2022-09-03T03:11:13.261Z,41.03
2022-09-03T03:12:13.350Z,41.00
2022-09-03T03:13:13.422Z,41.00
2022-09-03T03:14:13.504Z,41.02
2022-09-03T03:15:13.594Z,40.96
2022-09-03T03:16:13.742Z,40.98
2022-09-03T03:17:13.727Z,41.02
2022-09-03T03:18:13.815Z,41.03
2022-09-03T03:19:13.869Z,41.03
2022-09-03T03:20:13.955Z,41.04
2022-09-03T03:21:14.080Z,41.01
2022-09-03T03:22:14.119Z,41.01
2022-09-03T03:23:14.202Z,41.05
2022-09-03T03:24:14.268Z,41.11
2022-09-03T03:25:14.355Z,41.15
2022-09-03T03:26:14.437Z,41.11
2022-09-03T03:27:14.516Z,41.11
2022-09-03T03:28:14.604Z,41.07
2022-09-03T03:29:14.660Z,41.12
2022-09-03T03:30:14.724Z,41.22
2022-09-03T03:31:14.888Z,41.20
2022-09-03T03:32:14.904Z,41.22
2022-09-03T03:33:14.971Z,41.23
2022-09-03T03:34:15.057Z,41.27
2022-09-03T03:35:15.107Z,41.28
2022-09-03T03:36:15.203Z,41.33
2022-09-03T03:37:15.272Z,41.31
2022-09-03T03:38:15.413Z,41.28
2022-09-03T03:39:15.465Z,41.31
2022-09-03T03:40:15.528Z,41.34
2022-09-03T03:41:15.611Z,41.33
2022-09-03T03:42:15.712Z,41.34
2022-09-03T03:43:15.763Z,41.34
2022-09-03T03:44:15.824Z,41.39
2022-09-03T03:45:15.919Z,41.36
2022-09-03T03:46:16.096Z,41.37
2022-09-03T03:47:16.086Z,41.41
2022-09-03T03:48:16.180Z,41.50
2022-09-03T03:49:16.241Z,41.50
2022-09-03T03:50:16.331Z,41.51
2022-09-03T03:51:16.407Z,41.55
2022-09-03T03:52:16.549Z,41.55
2022-09-03T03:53:16.563Z,41.56
2022-09-03T03:54:17.626Z,41.60
2022-09-03T03:55:16.729Z,41.64
2022-09-03T03:56:16.810Z,41.64
2022-09-03T03:57:16.860Z,41.63
2022-09-03T03:58:16.954Z,41.63
2022-09-03T03:59:17.015Z,41.63
2022-09-03T04:00:17.107Z,41.64
2022-09-03T04:01:17.234Z,41.62
2022-09-03T04:02:17.351Z,41.64
2022-09-03T04:03:17.402Z,41.67
2022-09-03T04:04:17.427Z,41.66
2022-09-03T04:05:17.497Z,41.64
2022-09-03T04:06:17.592Z,41.66
2022-09-03T04:07:17.702Z,41.67
2022-09-03T04:08:17.741Z,41.65
2022-09-03T04:09:17.795Z,41.64
2022-09-03T04:10:17.870Z,41.66
2022-09-03T04:11:17.968Z,41.65
2022-09-03T04:12:18.149Z,41.64
2022-09-03T04:13:18.210Z,41.68
2022-09-03T04:14:18.207Z,41.66
2022-09-03T04:15:18.284Z,41.67
2022-09-03T04:16:18.518Z,41.66
2022-09-03T04:17:21.041Z,41.69
2022-09-03T04:18:18.542Z,41.72
2022-09-03T04:19:18.589Z,41.77
2022-09-03T04:20:18.684Z,41.75
2022-09-03T04:21:18.762Z,41.76
2022-09-03T04:22:18.834Z,41.72
2022-09-03T04:23:18.912Z,41.75
2022-09-03T04:24:19.001Z,41.77
2022-09-03T04:25:19.066Z,41.78
2022-09-03T04:26:19.118Z,41.79
2022-09-03T04:27:19.208Z,41.80
2022-09-03T04:28:19.313Z,41.82
2022-09-03T04:29:19.333Z,41.84
2022-09-03T04:30:19.429Z,41.90
2022-09-03T04:31:19.520Z,41.90
2022-09-03T04:32:19.570Z,41.85
2022-09-03T04:33:19.639Z,41.50
2022-09-03T04:34:19.798Z,41.24
2022-09-03T04:35:19.822Z,40.85
2022-09-03T04:36:19.897Z,40.92
2022-09-03T04:37:19.976Z,40.79
2022-09-03T04:38:20.108Z,40.70
2022-09-03T04:39:20.202Z,40.57
2022-09-03T04:40:20.267Z,40.25
2022-09-03T04:41:20.297Z,40.28
2022-09-03T04:42:20.401Z,40.31
2022-09-03T04:43:20.459Z,40.32
2022-09-03T04:44:20.551Z,40.22
2022-09-03T04:45:20.630Z,40.28
2022-09-03T04:46:20.975Z,40.22
2022-09-03T04:47:20.782Z,40.16
2022-09-03T04:48:20.864Z,40.17
2022-09-03T04:49:20.966Z,40.15
2022-09-03T04:50:21.013Z,40.08
2022-09-03T04:51:21.079Z,39.99
2022-09-03T04:52:21.225Z,40.04
2022-09-03T04:53:21.283Z,39.95
2022-09-03T04:54:21.316Z,39.98
2022-09-03T04:55:21.416Z,39.96
2022-09-03T04:56:21.459Z,39.96
2022-09-03T04:57:21.568Z,39.95
2022-09-03T04:58:21.732Z,39.95
2022-09-03T04:59:21.669Z,39.87
2022-09-03T05:00:21.760Z,39.78
2022-09-03T05:01:21.868Z,39.77
2022-09-03T05:02:21.959Z,39.73
2022-09-03T05:03:22.003Z,39.67
2022-09-03T05:04:22.069Z,39.75
2022-09-03T05:05:22.120Z,39.76
2022-09-03T05:06:22.196Z,39.76
2022-09-03T05:07:22.295Z,39.61
2022-09-03T05:08:22.437Z,39.81
2022-09-03T05:09:22.457Z,39.76
2022-09-03T05:10:22.558Z,39.75
2022-09-03T05:11:22.649Z,39.74
2022-09-03T05:12:22.730Z,39.67
2022-09-03T05:13:22.786Z,39.71
2022-09-03T05:14:22.872Z,39.70
2022-09-03T05:15:22.955Z,39.68
2022-09-03T05:16:23.055Z,39.66
2022-09-03T05:17:23.144Z,39.67
2022-09-03T05:18:23.285Z,39.65
2022-09-03T05:19:23.310Z,39.70
2022-09-03T05:20:23.333Z,39.68
2022-09-03T05:21:23.402Z,39.70
2022-09-03T05:22:23.488Z,39.71
2022-09-03T05:23:23.559Z,39.74
2022-09-03T05:24:23.645Z,39.74
2022-09-03T05:25:23.727Z,39.74
2022-09-03T05:26:23.832Z,39.71
2022-09-03T05:27:23.949Z,39.68
2022-09-03T05:28:24.146Z,39.69
2022-09-03T05:29:24.068Z,39.63
2022-09-03T05:30:24.211Z,39.71
2022-09-03T05:31:24.296Z,39.69
2022-09-03T05:32:24.304Z,39.72
2022-09-03T05:33:24.384Z,39.63
2022-09-03T05:34:24.469Z,39.65
2022-09-03T05:35:26.123Z,39.68
2022-09-03T05:36:24.625Z,39.62
2022-09-03T05:37:24.705Z,39.77
2022-09-03T05:38:24.908Z,39.76
2022-09-03T05:39:24.971Z,39.78
2022-09-03T05:40:24.977Z,39.78
2022-09-03T05:41:25.058Z,39.78
2022-09-03T05:42:25.215Z,39.77
2022-09-03T05:43:25.241Z,39.75
2022-09-03T05:44:25.314Z,39.76
2022-09-03T05:45:25.435Z,39.79
2022-09-03T05:46:25.517Z,39.83
2022-09-03T05:47:25.556Z,39.86
2022-09-03T05:48:25.716Z,39.89
2022-09-03T05:49:25.731Z,39.90
2022-09-03T05:50:25.813Z,39.90
2022-09-03T05:51:25.961Z,39.95
2022-09-03T05:52:25.982Z,39.98
2022-09-03T05:53:26.051Z,39.96
2022-09-03T05:54:26.189Z,39.98
2022-09-03T05:55:26.254Z,39.99
2022-09-03T05:56:26.291Z,39.97
2022-09-03T05:57:26.338Z,39.94
2022-09-03T05:58:26.405Z,39.95
2022-09-03T05:59:26.477Z,40.01
2022-09-03T06:00:26.554Z,40.03
2022-09-03T06:01:26.631Z,40.00
2022-09-03T06:02:26.856Z,40.00
2022-09-03T06:03:27.036Z,39.99
2022-09-03T06:04:26.863Z,39.99
2022-09-03T06:05:26.934Z,40.01
2022-09-03T06:06:27.022Z,39.97
2022-09-03T06:07:27.112Z,39.97
2022-09-03T06:08:27.262Z,39.99
2022-09-03T06:09:27.252Z,39.91
2022-09-03T06:10:34.410Z,39.74
2022-09-03T06:11:27.422Z,39.93
2022-09-03T06:12:27.506Z,39.85
2022-09-03T06:13:27.627Z,39.94
2022-09-03T06:14:27.668Z,39.75
2022-09-03T06:15:27.768Z,39.81
2022-09-03T06:16:31.787Z,39.78
2022-09-03T06:17:27.917Z,39.79
2022-09-03T06:18:27.997Z,39.72
2022-09-03T06:19:28.076Z,39.80
2022-09-03T06:20:28.153Z,39.73
2022-09-03T06:21:28.251Z,39.58
2022-09-03T06:22:28.361Z,39.70
2022-09-03T06:23:28.415Z,39.71
2022-09-03T06:24:28.654Z,39.65
2022-09-03T06:25:28.563Z,39.63
2022-09-03T06:26:29.395Z,39.84
2022-09-03T06:27:28.763Z,39.72
2022-09-03T06:28:28.815Z,39.77
2022-09-03T06:29:28.893Z,39.75
2022-09-03T06:30:29.000Z,39.75
2022-09-03T06:31:29.101Z,39.71
2022-09-03T06:32:29.175Z,39.72
2022-09-03T06:33:29.220Z,39.72
2022-09-03T06:34:29.327Z,39.73
2022-09-03T06:35:29.559Z,39.74
2022-09-03T06:36:29.553Z,39.76
2022-09-03T06:37:29.565Z,39.76
2022-09-03T06:38:29.660Z,39.75
2022-09-03T06:39:29.735Z,39.75
2022-09-03T06:40:29.794Z,39.76
2022-09-03T06:41:30.189Z,39.75
2022-09-03T06:42:29.971Z,39.78
2022-09-03T06:43:30.038Z,39.75
2022-09-03T06:44:30.115Z,39.77
2022-09-03T06:45:30.264Z,39.80
2022-09-03T06:46:30.282Z,39.80
2022-09-03T06:47:30.352Z,39.82
2022-09-03T06:48:30.436Z,39.80
2022-09-03T06:49:30.528Z,39.81
2022-09-03T06:50:34.479Z,39.83
2022-09-03T06:51:30.751Z,39.84
2022-09-03T06:52:30.749Z,39.85
2022-09-03T06:53:32.001Z,39.87
2022-09-03T06:54:30.911Z,39.87
2022-09-03T06:55:30.990Z,39.87
2022-09-03T06:56:33.018Z,39.87
2022-09-03T06:57:31.127Z,39.89
2022-09-03T06:58:31.213Z,39.89
2022-09-03T06:59:31.322Z,39.90
2022-09-03T07:00:31.840Z,39.89
2022-09-03T07:01:31.633Z,39.90
2022-09-03T07:02:31.572Z,39.94
2022-09-03T07:03:31.647Z,39.95
2022-09-03T07:04:31.732Z,39.99
2022-09-03T07:05:31.820Z,40.01
2022-09-03T07:06:31.915Z,40.10
2022-09-03T07:07:31.998Z,40.06
2022-09-03T07:08:32.072Z,40.11
2022-09-03T07:09:32.157Z,40.12
2022-09-03T07:10:32.244Z,40.08
2022-09-03T07:11:32.339Z,40.14
2022-09-03T07:12:32.413Z,40.18
2022-09-03T07:13:32.500Z,40.16
2022-09-03T07:14:32.591Z,40.28
2022-09-03T07:15:32.661Z,40.29
2022-09-03T07:16:32.794Z,40.28
2022-09-03T07:17:32.837Z,40.33
2022-09-03T07:18:32.892Z,40.35
2022-09-03T07:19:32.973Z,40.55
2022-09-03T07:20:33.065Z,40.58
2022-09-03T07:21:33.154Z,40.51
2022-09-03T07:22:33.226Z,40.57
2022-09-03T07:23:33.280Z,40.58
2022-09-03T07:24:33.367Z,40.64
2022-09-03T07:25:33.463Z,40.66
2022-09-03T07:26:33.527Z,40.68
2022-09-03T07:27:33.611Z,40.66
2022-09-03T07:28:33.684Z,40.70
2022-09-03T07:29:33.768Z,40.76
2022-09-03T07:30:33.851Z,40.75
2022-09-03T07:31:34.086Z,40.79
2022-09-03T07:32:34.019Z,40.83
2022-09-03T07:33:34.100Z,40.83
2022-09-03T07:34:34.187Z,40.82
2022-09-03T07:35:34.273Z,40.88
2022-09-03T07:36:34.365Z,40.85
2022-09-03T07:37:34.428Z,40.91
2022-09-03T07:38:34.581Z,40.90
2022-09-03T07:39:34.693Z,40.87
2022-09-03T07:40:34.671Z,40.83
2022-09-03T07:41:34.752Z,40.88
2022-09-03T07:42:34.871Z,40.85
2022-09-03T07:43:34.903Z,40.85
2022-09-03T07:44:34.953Z,40.83
2022-09-03T07:45:35.062Z,40.86
2022-09-03T07:46:35.190Z,40.62
2022-09-03T07:47:35.198Z,40.72
2022-09-03T07:48:37.427Z,40.84
2022-09-03T07:49:35.347Z,40.88
2022-09-03T07:50:35.426Z,40.81
2022-09-03T07:51:35.509Z,40.83
2022-09-03T07:52:35.590Z,40.88
2022-09-03T07:53:35.653Z,40.88
2022-09-03T07:54:35.761Z,40.78
2022-09-03T07:55:35.826Z,40.86
2022-09-03T07:56:35.965Z,40.93
2022-09-03T07:57:35.971Z,40.90
2022-09-03T07:58:36.026Z,40.86
2022-09-03T07:59:36.095Z,40.93
2022-09-03T08:00:36.242Z,40.84
2022-09-03T08:01:36.248Z,40.89
2022-09-03T08:02:36.334Z,40.85
2022-09-03T08:03:36.448Z,40.82
2022-09-03T08:04:36.529Z,40.70
2022-09-03T08:05:36.587Z,40.85
2022-09-03T08:06:36.652Z,40.88
2022-09-03T08:07:36.716Z,40.88
2022-09-03T08:08:36.775Z,40.86
2022-09-03T08:09:36.872Z,40.85
2022-09-03T08:10:36.939Z,40.89
2022-09-03T08:11:37.059Z,40.88
2022-09-03T08:12:37.347Z,40.88
2022-09-03T08:13:37.206Z,40.99
2022-09-03T08:14:37.265Z,41.01
2022-09-03T08:15:37.393Z,41.15
2022-09-03T08:16:37.478Z,41.13
2022-09-03T08:17:37.524Z,41.19
2022-09-03T08:18:37.618Z,41.09
2022-09-03T08:19:37.676Z,41.06
2022-09-03T08:20:37.779Z,41.11
2022-09-03T08:21:37.838Z,41.13
2022-09-03T08:22:37.937Z,41.03
2022-09-03T08:23:38.025Z,41.06
2022-09-03T08:24:38.100Z,41.05
2022-09-03T08:25:38.187Z,41.10
2022-09-03T08:26:38.339Z,41.06
2022-09-03T08:27:38.351Z,41.12
2022-09-03T08:28:38.445Z,41.28
2022-09-03T08:29:38.517Z,41.19
2022-09-03T08:30:38.623Z,41.36
2022-09-03T08:31:38.858Z,41.30
2022-09-03T08:32:38.842Z,41.30
2022-09-03T08:33:38.902Z,41.29
2022-09-03T08:34:38.944Z,41.31
2022-09-03T08:35:39.041Z,41.31
2022-09-03T08:36:39.093Z,41.21
2022-09-03T08:37:39.221Z,41.20
2022-09-03T08:38:39.268Z,41.14
2022-09-03T08:39:39.436Z,41.20
2022-09-03T08:40:39.431Z,41.20
2022-09-03T08:41:39.496Z,41.19
2022-09-03T08:42:39.574Z,41.24
2022-09-03T08:43:39.673Z,41.26
2022-09-03T08:44:39.780Z,41.18
2022-09-03T08:45:39.868Z,41.14
2022-09-03T08:46:40.181Z,41.07
2022-09-03T08:47:40.267Z,40.97
2022-09-03T08:48:40.136Z,40.90
2022-09-03T08:49:40.155Z,40.82
2022-09-03T08:50:40.246Z,40.82
2022-09-03T08:51:40.381Z,40.78
2022-09-03T08:52:40.376Z,40.73
2022-09-03T08:53:40.502Z,40.70
2022-09-03T08:54:40.662Z,40.64
2022-09-03T08:55:40.645Z,40.62
2022-09-03T08:56:40.657Z,40.62
2022-09-03T08:57:40.780Z,40.62
2022-09-03T08:58:40.810Z,40.69
2022-09-03T08:59:40.903Z,40.70
2022-09-03T09:00:40.990Z,40.71
2022-09-03T09:01:41.177Z,40.74
2022-09-03T09:02:41.299Z,40.84
2022-09-03T09:03:41.224Z,40.90
2022-09-03T09:04:41.337Z,40.86
2022-09-03T09:05:41.406Z,40.96
2022-09-03T09:06:41.478Z,40.97
2022-09-03T09:07:41.553Z,40.97
2022-09-03T09:08:41.619Z,40.96
2022-09-03T09:09:41.806Z,41.03
2022-09-03T09:10:41.795Z,41.03
2022-09-03T09:11:42.058Z,41.06
2022-09-03T09:12:46.546Z,41.09
2022-09-03T09:13:42.021Z,41.12
2022-09-03T09:14:42.100Z,41.12
2022-09-03T09:15:42.213Z,41.12
2022-09-03T09:16:42.264Z,41.15
2022-09-03T09:17:42.333Z,41.17
2022-09-03T09:18:42.410Z,41.20
2022-09-03T09:19:42.535Z,41.19
2022-09-03T09:20:42.597Z,41.22
2022-09-03T09:21:42.674Z,41.19
2022-09-03T09:22:42.750Z,41.19
2022-09-03T09:23:42.820Z,41.22
2022-09-03T09:24:42.905Z,41.20
2022-09-03T09:25:42.986Z,41.19
2022-09-03T09:26:43.064Z,41.17
2022-09-03T09:27:43.149Z,41.20
2022-09-03T09:28:43.214Z,41.17
2022-09-03T09:29:43.299Z,41.14
2022-09-03T09:30:43.376Z,41.09
2022-09-03T09:31:43.454Z,41.11
2022-09-03T09:32:43.522Z,41.13
2022-09-03T09:33:43.619Z,41.15
2022-09-03T09:34:44.943Z,41.15
2022-09-03T09:35:43.872Z,41.18
2022-09-03T09:36:43.897Z,41.18
2022-09-03T09:37:43.947Z,41.18
2022-09-03T09:38:44.026Z,41.18
2022-09-03T09:39:44.171Z,41.18
2022-09-03T09:40:45.083Z,41.15
2022-09-03T09:41:44.302Z,41.16
2022-09-03T09:42:44.378Z,41.25
2022-09-03T09:43:44.453Z,41.23
2022-09-03T09:44:44.540Z,41.24
2022-09-03T09:45:44.632Z,41.24
2022-09-03T09:46:44.740Z,41.19
2022-09-03T09:47:44.760Z,41.18
2022-09-03T09:48:44.847Z,41.13
2022-09-03T09:49:44.922Z,41.10
2022-09-03T09:50:45.019Z,41.06
2022-09-03T09:51:45.119Z,41.07
2022-09-03T09:52:45.190Z,41.12
2022-09-03T09:53:45.265Z,41.20
2022-09-03T09:54:45.346Z,41.31
2022-09-03T09:55:45.451Z,41.38
2022-09-03T09:56:45.540Z,41.19
2022-09-03T09:57:45.633Z,40.87
2022-09-03T09:58:45.701Z,40.71
2022-09-03T09:59:45.813Z,39.75
2022-09-03T10:00:45.866Z,39.98
2022-09-03T10:01:46.161Z,40.06
2022-09-03T10:02:46.046Z,39.87
2022-09-03T10:03:46.101Z,39.79
2022-09-03T10:04:46.190Z,40.02
2022-09-03T10:05:46.283Z,40.14
2022-09-03T10:06:46.356Z,40.11
2022-09-03T10:07:46.440Z,40.16
2022-09-03T10:08:46.534Z,40.12
2022-09-03T10:09:46.605Z,40.16
2022-09-03T10:10:46.699Z,40.24
2022-09-03T10:11:46.808Z,40.30
2022-09-03T10:12:46.823Z,40.35
2022-09-03T10:13:46.908Z,40.42
2022-09-03T10:14:47.000Z,40.45
2022-09-03T10:15:47.234Z,40.51
2022-09-03T10:16:47.224Z,40.52
2022-09-03T10:17:47.235Z,40.49
2022-09-03T10:18:47.443Z,40.45
2022-09-03T10:19:47.401Z,40.45
2022-09-03T10:20:47.497Z,40.56
2022-09-03T10:21:47.575Z,40.55
2022-09-03T10:22:57.007Z,40.55
2022-09-03T10:23:47.731Z,40.58
2022-09-03T10:24:47.787Z,40.61
2022-09-03T10:25:47.896Z,40.64
2022-09-03T10:26:47.938Z,40.69
2022-09-03T10:27:48.057Z,40.70
2022-09-03T10:28:48.097Z,40.72
2022-09-03T10:29:48.179Z,40.73
2022-09-03T10:30:48.298Z,40.76
2022-09-03T10:31:48.349Z,40.79
2022-09-03T10:32:48.685Z,40.79
2022-09-03T10:33:48.532Z,40.81
2022-09-03T10:34:48.619Z,40.81
2022-09-03T10:35:48.739Z,40.83
2022-09-03T10:36:48.798Z,40.84
2022-09-03T10:37:48.877Z,40.84
2022-09-03T10:38:48.930Z,40.84
2022-09-03T10:39:52.361Z,40.86
2022-09-03T10:40:49.086Z,40.87
2022-09-03T10:41:49.172Z,40.86
2022-09-03T10:42:49.257Z,40.87
2022-09-03T10:43:49.330Z,40.88
2022-09-03T10:44:49.410Z,40.88
2022-09-03T10:45:49.614Z,40.89
2022-09-03T10:46:49.606Z,40.91
2022-09-03T10:47:49.640Z,40.89
2022-09-03T10:48:49.728Z,40.90
2022-09-03T10:49:49.850Z,40.90
2022-09-03T10:50:49.888Z,40.91
2022-09-03T10:51:49.976Z,40.91
2022-09-03T10:52:50.048Z,40.92
2022-09-03T10:53:50.133Z,40.91
2022-09-03T10:54:50.216Z,40.93
2022-09-03T10:55:50.313Z,40.94
2022-09-03T10:56:50.368Z,40.95
2022-09-03T10:57:50.453Z,40.95
2022-09-03T10:58:50.565Z,40.94
2022-09-03T10:59:50.678Z,40.96
2022-09-03T11:00:50.680Z,40.96
2022-09-03T11:01:50.802Z,40.96
2022-09-03T11:02:50.881Z,40.98
2022-09-03T11:03:50.895Z,41.00
2022-09-03T11:04:50.983Z,40.99
2022-09-03T11:05:51.080Z,40.97
2022-09-03T11:06:51.159Z,41.00
2022-09-03T11:07:51.245Z,41.01
2022-09-03T11:08:51.330Z,41.01
2022-09-03T11:09:51.422Z,41.01
2022-09-03T11:10:51.516Z,41.02
2022-09-03T11:11:51.604Z,41.01
2022-09-03T11:12:53.033Z,40.99
2022-09-03T11:13:51.770Z,40.99
2022-09-03T11:14:51.832Z,41.00
2022-09-03T11:15:51.958Z,40.99
2022-09-03T11:16:51.970Z,40.99
2022-09-03T11:17:52.051Z,41.02
2022-09-03T11:18:52.159Z,40.99
2022-09-03T11:19:52.231Z,41.00
2022-09-03T11:20:52.331Z,40.98
2022-09-03T11:21:52.422Z,40.99
2022-09-03T11:22:52.488Z,40.99
2022-09-03T11:23:55.260Z,40.99
2022-09-03T11:24:52.634Z,40.98
2022-09-03T11:25:52.765Z,40.97
2022-09-03T11:26:52.748Z,40.99
2022-09-03T11:27:56.424Z,40.98
2022-09-03T11:28:52.915Z,40.98
2022-09-03T11:29:52.991Z,40.97
2022-09-03T11:30:53.160Z,40.96
2022-09-03T11:31:53.171Z,40.96
2022-09-03T11:32:55.440Z,40.94
2022-09-03T11:33:53.296Z,40.98
2022-09-03T11:34:53.404Z,40.99
2022-09-03T11:35:53.439Z,40.98
2022-09-03T11:36:53.526Z,40.96
2022-09-03T11:37:53.568Z,40.97
2022-09-03T11:38:53.652Z,40.97
2022-09-03T11:39:53.897Z,40.98
2022-09-03T11:40:53.827Z,41.00
2022-09-03T11:41:53.898Z,40.99
2022-09-03T11:42:53.981Z,40.98
2022-09-03T11:43:54.080Z,40.99
2022-09-03T11:44:54.178Z,40.98
2022-09-03T11:45:54.274Z,40.98
2022-09-03T11:46:54.319Z,40.99
2022-09-03T11:47:54.429Z,40.99
2022-09-03T11:48:55.480Z,40.98
2022-09-03T11:49:54.581Z,40.99
2022-09-03T11:50:54.637Z,41.01
2022-09-03T11:51:54.885Z,41.01
2022-09-03T11:52:54.820Z,41.00
2022-09-03T11:53:54.908Z,41.01
2022-09-03T11:54:55.037Z,41.01
2022-09-03T11:55:55.234Z,40.99
2022-09-03T11:56:55.137Z,40.98
2022-09-03T11:57:55.244Z,40.93
2022-09-03T11:58:55.263Z,40.92
2022-09-03T11:59:55.465Z,40.91
2022-09-03T12:00:55.437Z,40.88
2022-09-03T12:01:55.527Z,40.87
2022-09-03T12:02:58.943Z,40.90
2022-09-03T12:03:55.678Z,40.88
2022-09-03T12:04:55.905Z,40.87
2022-09-03T12:05:55.806Z,40.86
2022-09-03T12:06:55.901Z,40.82
2022-09-03T12:07:55.950Z,40.80
2022-09-03T12:08:56.153Z,40.80
2022-09-03T12:09:56.128Z,40.79
2022-09-03T12:10:56.949Z,40.79
2022-09-03T12:11:56.311Z,40.74
2022-09-03T12:12:56.385Z,40.74
2022-09-03T12:13:56.484Z,40.74
2022-09-03T12:14:56.574Z,40.72
2022-09-03T12:15:56.701Z,40.70
2022-09-03T12:16:56.748Z,40.71
2022-09-03T12:17:56.804Z,40.71
2022-09-03T12:18:56.962Z,40.76
2022-09-03T12:19:56.932Z,40.72
2022-09-03T12:20:57.016Z,40.73
2022-09-03T12:21:57.109Z,40.68
2022-09-03T12:22:57.214Z,40.61
2022-09-03T12:23:58.484Z,40.59
2022-09-03T12:24:57.327Z,40.57
2022-09-03T12:25:57.384Z,40.56
2022-09-03T12:26:57.488Z,40.57
2022-09-03T12:27:57.532Z,40.58
2022-09-03T12:28:57.623Z,40.58
2022-09-03T12:29:57.705Z,40.57
2022-09-03T12:30:57.876Z,40.55
2022-09-03T12:31:57.914Z,40.53
2022-09-03T12:32:57.984Z,40.52
2022-09-03T12:33:58.155Z,40.53
2022-09-03T12:34:58.123Z,40.54
2022-09-03T12:35:59.130Z,40.53
2022-09-03T12:36:58.292Z,40.53
2022-09-03T12:38:08.381Z,40.52
2022-09-03T12:39:11.555Z,40.52
2022-09-03T12:40:07.947Z,40.52
2022-09-03T12:41:58.748Z,40.55
2022-09-03T12:43:37.237Z,40.57
2022-09-03T12:43:58.951Z,40.60
2022-09-03T12:44:58.966Z,40.62
2022-09-03T12:46:14.479Z,40.62
2022-09-03T12:47:59.267Z,40.70
2022-09-03T12:49:59.383Z,40.73
2022-09-03T12:50:59.522Z,40.73
2022-09-03T12:52:04.536Z,40.73
2022-09-03T12:52:59.621Z,40.72
2022-09-03T12:53:59.698Z,40.72
2022-09-03T12:54:59.776Z,40.70
2022-09-03T12:55:59.847Z,40.69
2022-09-03T12:56:59.928Z,40.68